createdAt,value
2019-04-28T00:01:03.361Z,20.13
2019-04-28T00:02:10.941Z,20.13
2019-04-28T00:03:13.130Z,20.13
2019-04-28T00:04:15.749Z,20.13
2019-04-28T00:05:21.122Z,20.12
2019-04-28T00:06:24.422Z,20.11
2019-04-28T00:07:27.801Z,20.12
2019-04-28T00:08:31.926Z,20.10
2019-04-28T00:09:35.685Z,20.11
2019-04-28T00:10:41.710Z,20.10
2019-04-28T00:11:44.212Z,20.10
2019-04-28T00:12:48.535Z,20.11
2019-04-28T00:13:53.689Z,20.10
2019-04-28T00:14:56.514Z,20.11
2019-04-28T00:16:01.608Z,20.10
2019-04-28T00:17:05.068Z,20.10
2019-04-28T00:18:08.012Z,20.09
2019-04-28T00:19:12.337Z,20.09
2019-04-28T00:20:21.353Z,20.09
2019-04-28T00:21:31.927Z,20.08
2019-04-28T00:22:41.920Z,20.09
2019-04-28T00:24:03.444Z,20.09
2019-04-28T00:25:31.121Z,20.08
2019-04-28T00:26:47.290Z,20.08
2019-04-28T00:27:51.595Z,20.08
2019-04-28T00:28:55.694Z,20.07
2019-04-28T00:29:58.998Z,20.08
2019-04-28T00:31:02.464Z,20.07
2019-04-28T00:32:04.714Z,20.08
2019-04-28T00:33:06.939Z,20.07
2019-04-28T00:34:11.296Z,20.06
2019-04-28T00:35:13.122Z,20.06
2019-04-28T00:36:15.322Z,20.06
2019-04-28T00:37:25.994Z,20.06
2019-04-28T00:38:28.203Z,20.06
2019-04-28T00:39:31.070Z,20.07
2019-04-28T00:40:33.423Z,20.06
2019-04-28T00:41:35.638Z,20.06
2019-04-28T00:42:37.868Z,20.05
2019-04-28T00:43:41.829Z,20.05
2019-04-28T00:44:44.073Z,20.04
2019-04-28T00:45:46.278Z,20.05
2019-04-28T00:46:48.488Z,20.05
2019-04-28T00:47:51.092Z,20.05
2019-04-28T00:48:53.331Z,20.05
2019-04-28T00:49:55.623Z,20.04
2019-04-28T00:51:01.672Z,20.04
2019-04-28T00:52:03.109Z,20.05
2019-04-28T00:53:05.338Z,20.04
2019-04-28T00:54:07.564Z,20.04
2019-04-28T00:55:11.017Z,20.04
2019-04-28T00:56:13.388Z,20.03
2019-04-28T00:57:15.591Z,20.03
2019-04-28T00:58:17.859Z,20.03
2019-04-28T00:59:21.726Z,20.02
2019-04-28T01:00:25.638Z,20.04
2019-04-28T01:01:51.304Z,20.03
2019-04-28T01:02:53.752Z,20.03
2019-04-28T01:03:55.980Z,20.03
2019-04-28T01:04:58.213Z,20.02
2019-04-28T01:06:01.883Z,20.02
2019-04-28T01:07:04.301Z,20.02
2019-04-28T01:08:08.236Z,20.01
2019-04-28T01:09:11.846Z,20.02
2019-04-28T01:10:14.158Z,20.02
2019-04-28T01:11:16.358Z,20.02
2019-04-28T01:12:18.566Z,20.01
2019-04-28T01:13:21.480Z,20.00
2019-04-28T01:14:24.592Z,20.01
2019-04-28T01:15:37.308Z,19.99
2019-04-28T01:16:49.816Z,20.01
2019-04-28T01:17:58.022Z,20.00
2019-04-28T01:19:07.996Z,20.00
2019-04-28T01:20:11.260Z,19.99
2019-04-28T01:21:13.462Z,19.99
2019-04-28T01:22:17.603Z,19.98
2019-04-28T01:23:20.376Z,19.99
2019-04-28T01:24:22.648Z,19.99
2019-04-28T01:25:24.838Z,19.99
2019-04-28T01:26:27.048Z,19.98
2019-04-28T01:27:50.294Z,19.99
2019-04-28T01:28:52.063Z,19.98
2019-04-28T01:30:05.364Z,19.98
2019-04-28T01:31:21.281Z,19.98
2019-04-28T01:32:31.327Z,19.98
2019-04-28T01:34:04.392Z,19.96
2019-04-28T01:35:06.611Z,19.96
2019-04-28T01:36:10.344Z,19.96
2019-04-28T01:37:12.698Z,19.97
2019-04-28T01:38:14.993Z,19.96
2019-04-28T01:39:17.305Z,19.96
2019-04-28T01:40:20.557Z,19.95
2019-04-28T01:41:22.922Z,19.96
2019-04-28T01:42:25.127Z,19.96
2019-04-28T01:43:27.323Z,19.95
2019-04-28T01:44:29.822Z,19.94
2019-04-28T01:45:32.095Z,19.94
2019-04-28T01:46:34.311Z,19.95
2019-04-28T01:47:36.497Z,19.94
2019-04-28T01:48:39.817Z,19.94
2019-04-28T01:49:42.184Z,19.94
2019-04-28T01:50:44.392Z,19.94
2019-04-28T01:51:46.616Z,19.94
2019-04-28T01:52:49.698Z,19.93
2019-04-28T01:53:52.703Z,19.94
2019-04-28T01:54:54.945Z,19.94
2019-04-28T01:55:57.160Z,19.93
2019-04-28T01:57:01.362Z,19.93
2019-04-28T01:58:03.243Z,19.93
2019-04-28T01:59:05.462Z,19.92
2019-04-28T02:00:22.336Z,19.92
2019-04-28T02:01:13.097Z,19.92
2019-04-28T02:02:15.299Z,19.92
2019-04-28T02:03:17.513Z,19.92
2019-04-28T02:04:19.788Z,19.91
2019-04-28T02:05:21.948Z,19.92
2019-04-28T02:06:24.157Z,19.91
2019-04-28T02:07:26.361Z,19.91
2019-04-28T02:08:30.195Z,19.91
2019-04-28T02:09:32.599Z,19.91
2019-04-28T02:10:34.797Z,19.91
2019-04-28T02:11:37.032Z,19.90
2019-04-28T02:12:59.814Z,19.90
2019-04-28T02:14:03.640Z,19.90
2019-04-28T02:15:05.851Z,19.89
2019-04-28T02:16:09.748Z,19.91
2019-04-28T02:17:12.065Z,19.89
2019-04-28T02:18:14.266Z,19.89
2019-04-28T02:19:16.462Z,19.89
2019-04-28T02:20:20.168Z,19.89
2019-04-28T02:21:40.445Z,19.90
2019-04-28T02:22:54.191Z,19.89
2019-04-28T02:24:15.345Z,19.89
2019-04-28T02:25:17.572Z,19.89
2019-04-28T02:26:19.771Z,19.88
2019-04-28T02:27:22.189Z,19.89
2019-04-28T02:28:24.391Z,19.88
2019-04-28T02:29:26.621Z,19.87
2019-04-28T02:30:44.161Z,19.88
2019-04-28T02:31:32.656Z,19.88
2019-04-28T02:32:34.864Z,19.88
2019-04-28T02:33:37.050Z,19.87
2019-04-28T02:34:41.079Z,19.88
2019-04-28T02:35:43.229Z,19.86
2019-04-28T02:36:45.428Z,19.86
2019-04-28T02:37:50.019Z,19.87
2019-04-28T02:38:51.577Z,19.86
2019-04-28T02:39:53.834Z,19.87
2019-04-28T02:40:56.024Z,19.85
2019-04-28T02:42:00.980Z,19.86
2019-04-28T02:43:02.074Z,19.85
2019-04-28T02:44:04.271Z,19.85
2019-04-28T02:45:06.574Z,19.86
2019-04-28T02:46:10.555Z,19.86
2019-04-28T02:47:12.632Z,19.86
2019-04-28T02:48:21.195Z,19.85
2019-04-28T02:49:30.635Z,19.85
2019-04-28T02:50:50.968Z,19.85
2019-04-28T02:52:12.352Z,19.85
2019-04-28T02:53:40.930Z,19.86
2019-04-28T02:54:43.276Z,19.84
2019-04-28T02:55:45.516Z,19.84
2019-04-28T02:56:47.701Z,19.84
2019-04-28T02:57:51.716Z,19.84
2019-04-28T02:58:53.751Z,19.83
2019-04-28T02:59:55.954Z,19.83
2019-04-28T03:01:06.182Z,19.83
2019-04-28T03:02:02.008Z,19.83
2019-04-28T03:03:04.203Z,19.83
2019-04-28T03:04:06.450Z,19.82
2019-04-28T03:05:11.483Z,19.84
2019-04-28T03:06:12.492Z,19.82
2019-04-28T03:07:14.848Z,19.83
2019-04-28T03:08:17.117Z,19.82
2019-04-28T03:09:20.233Z,19.83
2019-04-28T03:10:22.627Z,19.83
2019-04-28T03:11:24.828Z,19.81
2019-04-28T03:12:27.021Z,19.81
2019-04-28T03:13:31.125Z,19.81
2019-04-28T03:14:33.073Z,19.82
2019-04-28T03:15:35.292Z,19.81
2019-04-28T03:16:37.492Z,19.80
2019-04-28T03:17:40.734Z,19.81
2019-04-28T03:18:43.215Z,19.81
2019-04-28T03:19:45.407Z,19.81
2019-04-28T03:20:47.642Z,19.80
2019-04-28T03:21:50.991Z,19.80
2019-04-28T03:22:53.572Z,19.80
2019-04-28T03:23:55.801Z,19.79
2019-04-28T03:25:00.887Z,19.78
2019-04-28T03:26:11.209Z,19.80
2019-04-28T03:27:25.887Z,19.80
2019-04-28T03:28:47.025Z,19.79
2019-04-28T03:29:53.932Z,19.80
2019-04-28T03:31:48.928Z,19.79
2019-04-28T03:32:52.975Z,19.79
2019-04-28T03:33:53.942Z,19.79
2019-04-28T03:34:53.698Z,19.77
2019-04-28T03:35:56.083Z,19.78
2019-04-28T03:37:00.316Z,19.77
2019-04-28T03:38:02.174Z,19.78
2019-04-28T03:39:06.470Z,19.77
2019-04-28T03:40:10.864Z,19.77
2019-04-28T03:41:12.523Z,19.77
2019-04-28T03:42:14.716Z,19.77
2019-04-28T03:43:16.954Z,19.77
2019-04-28T03:44:20.778Z,19.76
2019-04-28T03:45:30.170Z,19.77
2019-04-28T03:46:33.804Z,19.77
2019-04-28T03:47:35.995Z,19.76
2019-04-28T03:48:40.769Z,19.77
2019-04-28T03:49:43.295Z,19.76
2019-04-28T03:50:45.676Z,19.76
2019-04-28T03:51:50.541Z,19.76
2019-04-28T03:52:51.737Z,19.75
2019-04-28T03:53:53.973Z,19.75
2019-04-28T03:54:56.170Z,19.75
2019-04-28T03:56:01.190Z,19.75
2019-04-28T03:57:02.211Z,19.75
2019-04-28T03:58:04.418Z,19.75
2019-04-28T03:59:06.644Z,19.74
2019-04-28T04:00:10.992Z,19.75
2019-04-28T04:01:13.342Z,19.75
2019-04-28T04:02:15.539Z,19.74
2019-04-28T04:03:20.646Z,19.75
2019-04-28T04:04:21.614Z,19.74
2019-04-28T04:05:23.752Z,19.74
2019-04-28T04:06:25.944Z,19.74
2019-04-28T04:07:30.854Z,19.73
2019-04-28T04:08:32.023Z,19.73
2019-04-28T04:09:55.936Z,19.74
2019-04-28T04:11:20.329Z,19.73
2019-04-28T04:12:51.084Z,19.73
2019-04-28T04:14:12.371Z,19.72
2019-04-28T04:15:24.775Z,19.72
2019-04-28T04:16:55.260Z,19.72
2019-04-28T04:18:21.062Z,19.72
2019-04-28T04:19:23.467Z,19.72
2019-04-28T04:20:25.672Z,19.72
2019-04-28T04:21:30.807Z,19.72
2019-04-28T04:22:31.737Z,19.71
2019-04-28T04:23:33.945Z,19.71
2019-04-28T04:24:36.154Z,19.71
2019-04-28T04:25:38.355Z,19.72
2019-04-28T04:26:42.247Z,19.71
2019-04-28T04:27:44.434Z,19.70
2019-04-28T04:28:46.667Z,19.70
2019-04-28T04:29:50.925Z,19.70
2019-04-28T04:30:52.717Z,19.71
2019-04-28T04:32:10.252Z,19.69
2019-04-28T04:33:01.309Z,19.69
2019-04-28T04:34:03.345Z,19.69
2019-04-28T04:35:05.789Z,19.69
2019-04-28T04:36:07.991Z,19.69
2019-04-28T04:37:12.572Z,19.69
2019-04-28T04:38:14.031Z,19.70
2019-04-28T04:39:16.231Z,19.69
2019-04-28T04:40:20.800Z,19.69
2019-04-28T04:41:22.294Z,19.69
2019-04-28T04:42:24.495Z,19.68
2019-04-28T04:43:26.728Z,19.68
2019-04-28T04:44:30.982Z,19.68
2019-04-28T04:45:32.806Z,19.69
2019-04-28T04:46:35.006Z,19.68
2019-04-28T04:47:37.214Z,19.68
2019-04-28T04:48:40.776Z,19.67
2019-04-28T04:49:43.065Z,19.68
2019-04-28T04:50:45.258Z,19.67
2019-04-28T04:51:47.471Z,19.67
2019-04-28T04:52:50.210Z,19.67
2019-04-28T04:53:52.627Z,19.67
2019-04-28T04:54:54.833Z,19.67
2019-04-28T04:55:57.037Z,19.66
2019-04-28T04:57:00.029Z,19.67
2019-04-28T04:58:02.441Z,19.67
2019-04-28T04:59:04.599Z,19.65
2019-04-28T05:00:10.030Z,19.66
2019-04-28T05:01:20.375Z,19.66
2019-04-28T05:02:33.060Z,19.66
2019-04-28T05:03:35.730Z,19.65
2019-04-28T05:04:51.656Z,19.65
2019-04-28T05:05:53.839Z,19.66
2019-04-28T05:06:56.045Z,19.66
2019-04-28T05:08:00.242Z,19.65
2019-04-28T05:09:02.108Z,19.65
2019-04-28T05:10:04.339Z,19.65
2019-04-28T05:11:06.537Z,19.65
2019-04-28T05:12:09.684Z,19.65
2019-04-28T05:13:12.077Z,19.64
2019-04-28T05:14:14.265Z,19.65
2019-04-28T05:15:16.498Z,19.64
2019-04-28T05:16:19.769Z,19.64
2019-04-28T05:17:22.026Z,19.64
2019-04-28T05:18:24.227Z,19.64
2019-04-28T05:19:26.353Z,19.64
2019-04-28T05:20:30.233Z,19.63
2019-04-28T05:21:33.437Z,19.63
2019-04-28T05:22:42.524Z,19.64
2019-04-28T05:24:09.240Z,19.64
2019-04-28T05:25:17.745Z,19.64
2019-04-28T05:26:21.366Z,19.62
2019-04-28T05:27:25.612Z,19.63
2019-04-28T05:28:30.604Z,19.62
2019-04-28T05:29:31.261Z,19.62
2019-04-28T05:30:34.794Z,19.63
2019-04-28T05:31:37.249Z,19.62
2019-04-28T05:32:45.215Z,19.63
2019-04-28T05:33:43.289Z,19.62
2019-04-28T05:34:46.751Z,19.62
2019-04-28T05:35:50.099Z,19.62
2019-04-28T05:36:52.313Z,19.62
2019-04-28T05:37:54.494Z,19.61
2019-04-28T05:38:56.714Z,19.62
2019-04-28T05:40:00.882Z,19.62
2019-04-28T05:41:02.985Z,19.62
2019-04-28T05:42:05.206Z,19.61
2019-04-28T05:43:07.447Z,19.61
2019-04-28T05:44:10.131Z,19.61
2019-04-28T05:45:12.381Z,19.61
2019-04-28T05:46:14.582Z,19.61
2019-04-28T05:47:16.785Z,19.61
2019-04-28T05:48:36.075Z,19.61
2019-04-28T05:49:47.562Z,19.60
2019-04-28T05:50:59.941Z,19.61
2019-04-28T05:52:09.627Z,19.60
2019-04-28T05:53:21.712Z,19.61
2019-04-28T05:54:31.530Z,19.60
2019-04-28T05:55:47.063Z,19.59
2019-04-28T05:57:11.607Z,19.60
2019-04-28T05:58:32.766Z,19.59
2019-04-28T06:00:03.325Z,19.60
2019-04-28T06:01:15.631Z,19.59
2019-04-28T06:02:22.211Z,19.59
2019-04-28T06:03:24.518Z,19.60
2019-04-28T06:04:27.853Z,19.60
2019-04-28T06:05:31.802Z,19.59
2019-04-28T06:06:37.830Z,19.59
2019-04-28T06:07:49.372Z,19.58
2019-04-28T06:09:10.549Z,19.58
2019-04-28T06:10:12.763Z,19.58
2019-04-28T06:11:35.205Z,19.58
2019-04-28T06:12:37.395Z,19.59
2019-04-28T06:13:40.150Z,19.58
2019-04-28T06:14:42.402Z,19.58
2019-04-28T06:15:44.623Z,19.57
2019-04-28T06:16:46.846Z,19.58
2019-04-28T06:17:49.852Z,19.57
2019-04-28T06:18:52.174Z,19.58
2019-04-28T06:19:54.362Z,19.57
2019-04-28T06:20:56.571Z,19.57
2019-04-28T06:21:58.774Z,19.57
2019-04-28T06:23:00.999Z,19.58
2019-04-28T06:24:03.206Z,19.57
2019-04-28T06:25:05.460Z,19.57
2019-04-28T06:26:07.674Z,19.57
2019-04-28T06:27:09.874Z,19.57
2019-04-28T06:28:12.091Z,19.56
2019-04-28T06:29:14.309Z,19.57
2019-04-28T06:30:16.501Z,19.56
2019-04-28T06:31:18.704Z,19.56
2019-04-28T06:32:20.898Z,19.57
2019-04-28T06:33:23.092Z,19.56
2019-04-28T06:34:25.315Z,19.56
2019-04-28T06:35:27.522Z,19.55
2019-04-28T06:36:29.737Z,19.56
2019-04-28T06:37:31.944Z,19.56
2019-04-28T06:38:34.151Z,19.56
2019-04-28T06:39:36.363Z,19.55
2019-04-28T06:40:38.571Z,19.55
2019-04-28T06:41:40.786Z,19.55
2019-04-28T06:42:42.998Z,19.55
2019-04-28T06:43:45.205Z,19.55
2019-04-28T06:44:47.418Z,19.54
2019-04-28T06:45:49.630Z,19.55
2019-04-28T06:46:51.838Z,19.55
2019-04-28T06:47:54.046Z,19.55
2019-04-28T06:48:56.257Z,19.55
2019-04-28T06:49:58.472Z,19.56
2019-04-28T06:51:00.710Z,19.55
2019-04-28T06:52:02.933Z,19.55
2019-04-28T06:53:05.136Z,19.56
2019-04-28T06:54:07.342Z,19.57
2019-04-28T06:55:09.540Z,19.58
2019-04-28T06:56:11.772Z,19.57
2019-04-28T06:57:13.977Z,19.57
2019-04-28T06:58:16.183Z,19.57
2019-04-28T06:59:18.394Z,19.57
2019-04-28T07:00:20.588Z,19.57
2019-04-28T07:01:22.809Z,19.56
2019-04-28T07:02:25.019Z,19.56
2019-04-28T07:03:27.245Z,19.56
2019-04-28T07:04:29.443Z,19.55
2019-04-28T07:05:31.651Z,19.56
2019-04-28T07:06:33.876Z,19.55
2019-04-28T07:07:36.054Z,19.54
2019-04-28T07:08:38.292Z,19.53
2019-04-28T07:09:40.616Z,19.54
2019-04-28T07:10:42.854Z,19.55
2019-04-28T07:11:45.080Z,19.53
2019-04-28T07:12:47.314Z,19.54
2019-04-28T07:13:49.528Z,19.54
2019-04-28T07:14:51.730Z,19.53
2019-04-28T07:15:53.942Z,19.53
2019-04-28T07:16:56.166Z,19.53
2019-04-28T07:17:58.369Z,19.54
2019-04-28T07:19:00.614Z,19.53
2019-04-28T07:20:13.473Z,19.52
2019-04-28T07:21:40.644Z,19.53
2019-04-28T07:22:42.850Z,19.52
2019-04-28T07:23:45.037Z,19.51
2019-04-28T07:24:47.240Z,19.52
2019-04-28T07:25:49.448Z,19.52
2019-04-28T07:26:51.688Z,19.51
2019-04-28T07:27:53.872Z,19.52
2019-04-28T07:28:56.074Z,19.51
2019-04-28T07:29:58.214Z,19.52
2019-04-28T07:31:00.430Z,19.53
2019-04-28T07:32:02.630Z,19.51
2019-04-28T07:33:04.826Z,19.52
2019-04-28T07:34:07.023Z,19.51
2019-04-28T07:35:09.257Z,19.50
2019-04-28T07:36:11.384Z,19.51
2019-04-28T07:37:13.677Z,19.51
2019-04-28T07:38:15.894Z,19.51
2019-04-28T07:39:18.100Z,19.51
2019-04-28T07:40:20.336Z,19.51
2019-04-28T07:41:22.559Z,19.51
2019-04-28T07:42:24.762Z,19.51
2019-04-28T07:43:27.009Z,19.51
2019-04-28T07:44:29.217Z,19.51
2019-04-28T07:45:31.460Z,19.50
2019-04-28T07:46:33.658Z,19.50
2019-04-28T07:47:35.865Z,19.50
2019-04-28T07:48:38.069Z,19.50
2019-04-28T07:49:40.273Z,19.50
2019-04-28T07:50:42.565Z,19.50
2019-04-28T07:51:57.800Z,19.50
2019-04-28T07:53:11.773Z,19.51
2019-04-28T07:54:16.289Z,19.51
2019-04-28T07:55:18.509Z,19.50
2019-04-28T07:56:20.749Z,19.50
2019-04-28T07:57:24.186Z,19.50
2019-04-28T07:58:26.469Z,19.51
2019-04-28T07:59:28.674Z,19.50
2019-04-28T08:00:31.527Z,19.49
2019-04-28T08:01:33.770Z,19.50
2019-04-28T08:02:35.970Z,19.50
2019-04-28T08:03:48.676Z,19.49
2019-04-28T08:04:42.035Z,19.49
2019-04-28T08:05:44.251Z,19.50
2019-04-28T08:06:46.543Z,19.49
2019-04-28T08:07:48.768Z,19.50
2019-04-28T08:08:50.970Z,19.49
2019-04-28T08:09:53.182Z,19.50
2019-04-28T08:10:55.387Z,19.50
2019-04-28T08:11:57.605Z,19.50
2019-04-28T08:12:59.772Z,19.50
2019-04-28T08:14:02.008Z,19.50
2019-04-28T08:15:04.296Z,19.50
2019-04-28T08:16:06.509Z,19.50
2019-04-28T08:17:08.747Z,19.50
2019-04-28T08:18:10.956Z,19.50
2019-04-28T08:19:13.175Z,19.49
2019-04-28T08:20:15.372Z,19.49
2019-04-28T08:21:17.588Z,19.49
2019-04-28T08:22:19.834Z,19.49
2019-04-28T08:23:22.051Z,19.48
2019-04-28T08:24:24.259Z,19.49
2019-04-28T08:25:26.489Z,19.47
2019-04-28T08:26:28.704Z,19.49
2019-04-28T08:27:30.948Z,19.48
2019-04-28T08:28:33.177Z,19.49
2019-04-28T08:29:35.369Z,19.48
2019-04-28T08:30:37.591Z,19.48
2019-04-28T08:31:52.874Z,19.48
2019-04-28T08:33:17.090Z,19.48
2019-04-28T08:34:19.581Z,19.47
2019-04-28T08:35:21.804Z,19.48
2019-04-28T08:36:24.009Z,19.48
2019-04-28T08:37:26.222Z,19.48
2019-04-28T08:38:28.397Z,19.47
2019-04-28T08:39:30.609Z,19.48
2019-04-28T08:40:32.847Z,19.47
2019-04-28T08:41:35.058Z,19.47
2019-04-28T08:42:37.268Z,19.48
2019-04-28T08:43:39.480Z,19.47
2019-04-28T08:44:41.693Z,19.47
2019-04-28T08:45:43.945Z,19.48
2019-04-28T08:46:46.155Z,19.47
2019-04-28T08:47:48.423Z,19.47
2019-04-28T08:48:50.634Z,19.47
2019-04-28T08:49:52.846Z,19.47
2019-04-28T08:50:55.064Z,19.47
2019-04-28T08:51:57.289Z,19.46
2019-04-28T08:52:59.520Z,19.47
2019-04-28T08:54:01.739Z,19.47
2019-04-28T08:55:03.957Z,19.47
2019-04-28T08:56:06.168Z,19.46
2019-04-28T08:57:08.395Z,19.47
2019-04-28T08:58:10.633Z,19.47
2019-04-28T08:59:12.838Z,19.47
2019-04-28T09:00:16.366Z,19.47
2019-04-28T09:01:18.578Z,19.47
2019-04-28T09:02:20.804Z,19.48
2019-04-28T09:03:23.054Z,19.48
2019-04-28T09:04:25.265Z,19.47
2019-04-28T09:05:27.470Z,19.47
2019-04-28T09:06:29.680Z,19.47
2019-04-28T09:07:31.901Z,19.45
2019-04-28T09:08:34.139Z,19.45
2019-04-28T09:09:36.362Z,19.45
2019-04-28T09:10:38.557Z,19.46
2019-04-28T09:11:40.856Z,19.47
2019-04-28T09:12:43.075Z,19.45
2019-04-28T09:13:45.332Z,19.45
2019-04-28T09:14:48.553Z,19.45
2019-04-28T09:15:50.779Z,19.45
2019-04-28T09:16:53.016Z,19.45
2019-04-28T09:17:55.210Z,19.45
2019-04-28T09:18:57.455Z,19.45
2019-04-28T09:19:59.673Z,19.44
2019-04-28T09:21:01.885Z,19.44
2019-04-28T09:22:04.296Z,19.44
2019-04-28T09:23:06.519Z,19.44
2019-04-28T09:24:08.728Z,19.44
2019-04-28T09:25:10.937Z,19.44
2019-04-28T09:26:13.182Z,19.44
2019-04-28T09:27:15.595Z,19.44
2019-04-28T09:28:17.978Z,19.44
2019-04-28T09:29:20.201Z,19.43
2019-04-28T09:30:22.398Z,19.43
2019-04-28T09:31:24.628Z,19.44
2019-04-28T09:32:26.894Z,19.44
2019-04-28T09:33:29.058Z,19.43
2019-04-28T09:34:32.422Z,19.44
2019-04-28T09:35:34.590Z,19.43
2019-04-28T09:36:36.806Z,19.44
2019-04-28T09:37:39.024Z,19.44
2019-04-28T09:38:41.247Z,19.44
2019-04-28T09:39:57.714Z,19.44
2019-04-28T09:40:59.915Z,19.42
2019-04-28T09:42:39.528Z,19.43
2019-04-28T09:43:59.449Z,19.44
2019-04-28T09:45:02.112Z,19.41
2019-04-28T09:46:12.085Z,19.43
2019-04-28T09:47:14.354Z,19.44
2019-04-28T09:48:16.554Z,19.43
2019-04-28T09:49:18.792Z,19.43
2019-04-28T09:50:21.030Z,19.43
2019-04-28T09:51:23.236Z,19.44
2019-04-28T09:52:25.460Z,19.43
2019-04-28T09:53:27.695Z,19.42
2019-04-28T09:54:29.908Z,19.43
2019-04-28T09:55:32.126Z,19.44
2019-04-28T09:56:34.362Z,19.43
2019-04-28T09:57:36.574Z,19.43
2019-04-28T09:58:38.775Z,19.44
2019-04-28T09:59:41.011Z,19.43
2019-04-28T10:00:43.319Z,19.43
2019-04-28T10:01:45.547Z,19.41
2019-04-28T10:02:47.767Z,19.43
2019-04-28T10:03:49.976Z,19.43
2019-04-28T10:04:52.199Z,19.41
2019-04-28T10:05:54.468Z,19.43
2019-04-28T10:06:56.679Z,19.43
2019-04-28T10:07:59.890Z,19.43
2019-04-28T10:09:02.112Z,19.43
2019-04-28T10:10:04.333Z,19.43
2019-04-28T10:11:06.563Z,19.43
2019-04-28T10:12:08.780Z,19.44
2019-04-28T10:13:10.972Z,19.43
2019-04-28T10:14:13.201Z,19.44
2019-04-28T10:15:15.414Z,19.44
2019-04-28T10:16:17.652Z,19.44
2019-04-28T10:17:19.868Z,19.43
2019-04-28T10:18:22.076Z,19.43
2019-04-28T10:19:24.328Z,19.43
2019-04-28T10:20:26.520Z,19.43
2019-04-28T10:21:28.736Z,19.43
2019-04-28T10:22:30.946Z,19.44
2019-04-28T10:23:33.190Z,19.43
2019-04-28T10:24:35.444Z,19.43
2019-04-28T10:25:37.670Z,19.43
2019-04-28T10:26:39.872Z,19.42
2019-04-28T10:27:42.082Z,19.42
2019-04-28T10:28:44.280Z,19.41
2019-04-28T10:29:46.503Z,19.43
2019-04-28T10:30:48.712Z,19.43
2019-04-28T10:31:50.945Z,19.43
2019-04-28T10:32:53.154Z,19.43
2019-04-28T10:33:58.712Z,19.43
2019-04-28T10:35:00.943Z,19.42
2019-04-28T10:36:03.167Z,19.43
2019-04-28T10:37:05.391Z,19.41
2019-04-28T10:38:07.611Z,19.41
2019-04-28T10:39:41.153Z,19.41
2019-04-28T10:40:49.998Z,19.42
2019-04-28T10:41:52.219Z,19.41
2019-04-28T10:42:54.432Z,19.42
2019-04-28T10:43:56.648Z,19.43
2019-04-28T10:44:58.885Z,19.42
2019-04-28T10:46:01.110Z,19.43
2019-04-28T10:47:03.319Z,19.41
2019-04-28T10:48:06.028Z,19.41
2019-04-28T10:49:08.257Z,19.43
2019-04-28T10:50:10.482Z,19.43
2019-04-28T10:51:12.607Z,19.43
2019-04-28T10:52:14.828Z,19.43
2019-04-28T10:53:17.071Z,19.42
2019-04-28T10:54:19.271Z,19.43
2019-04-28T10:55:21.495Z,19.42
2019-04-28T10:56:23.713Z,19.43
2019-04-28T10:57:25.950Z,19.41
2019-04-28T10:58:28.150Z,19.40
2019-04-28T10:59:30.466Z,19.41
2019-04-28T11:00:34.126Z,19.41
2019-04-28T11:01:36.341Z,19.40
2019-04-28T11:02:41.110Z,19.41
2019-04-28T11:03:45.508Z,19.40
2019-04-28T11:05:08.207Z,19.41
2019-04-28T11:06:04.139Z,19.39
2019-04-28T11:07:06.546Z,19.41
2019-04-28T11:08:13.795Z,19.40
2019-04-28T11:09:31.001Z,19.40
2019-04-28T11:10:33.303Z,19.40
2019-04-28T11:11:35.509Z,19.40
2019-04-28T11:12:37.721Z,19.40
2019-04-28T11:13:39.923Z,19.41
2019-04-28T11:14:42.133Z,19.39
2019-04-28T11:15:44.362Z,19.40
2019-04-28T11:16:46.566Z,19.40
2019-04-28T11:17:48.784Z,19.39
2019-04-28T11:18:51.007Z,19.40
2019-04-28T11:19:53.235Z,19.39
2019-04-28T11:20:55.435Z,19.40
2019-04-28T11:21:57.650Z,19.39
2019-04-28T11:22:59.874Z,19.39
2019-04-28T11:24:02.099Z,19.39
2019-04-28T11:25:04.313Z,19.39
2019-04-28T11:26:06.467Z,19.38
2019-04-28T11:27:09.378Z,19.38
2019-04-28T11:28:11.587Z,19.38
2019-04-28T11:29:13.826Z,19.39
2019-04-28T11:30:16.856Z,19.39
2019-04-28T11:31:19.091Z,19.38
2019-04-28T11:32:21.346Z,19.38
2019-04-28T11:33:33.730Z,19.38
2019-04-28T11:34:52.947Z,19.38
2019-04-28T11:35:55.187Z,19.37
2019-04-28T11:36:57.401Z,19.37
2019-04-28T11:37:59.716Z,19.35
2019-04-28T11:39:01.934Z,19.39
2019-04-28T11:40:04.173Z,19.40
2019-04-28T11:41:06.713Z,19.42
2019-04-28T11:42:08.933Z,19.41
2019-04-28T11:43:11.145Z,19.39
2019-04-28T11:44:13.546Z,19.41
2019-04-28T11:45:15.772Z,19.48
2019-04-28T11:46:19.600Z,19.51
2019-04-28T11:47:23.125Z,19.53
2019-04-28T11:48:25.361Z,19.66
2019-04-28T11:49:27.597Z,19.65
2019-04-28T11:50:29.800Z,19.63
2019-04-28T11:51:32.113Z,19.59
2019-04-28T11:52:34.325Z,19.55
2019-04-28T11:53:38.239Z,19.53
2019-04-28T11:54:40.461Z,19.54
2019-04-28T11:55:42.674Z,19.59
2019-04-28T11:56:44.913Z,19.61
2019-04-28T11:57:47.184Z,19.61
2019-04-28T11:58:49.401Z,19.60
2019-04-28T11:59:53.907Z,19.60
2019-04-28T12:00:55.682Z,19.59
2019-04-28T12:01:57.872Z,19.59
2019-04-28T12:03:00.092Z,19.59
2019-04-28T12:04:04.031Z,19.61
2019-04-28T12:05:06.408Z,19.60
2019-04-28T12:06:08.641Z,19.59
2019-04-28T12:07:10.865Z,19.59
2019-04-28T12:08:13.077Z,19.58
2019-04-28T12:09:32.710Z,19.57
2019-04-28T12:10:38.934Z,19.57
2019-04-28T12:11:44.315Z,19.56
2019-04-28T12:13:01.187Z,19.57
2019-04-28T12:14:22.569Z,19.55
2019-04-28T12:15:49.900Z,19.55
2019-04-28T12:17:18.574Z,19.55
2019-04-28T12:18:42.930Z,19.55
2019-04-28T12:19:58.185Z,19.56
2019-04-28T12:21:00.404Z,19.55
2019-04-28T12:22:02.660Z,19.54
2019-04-28T12:23:04.963Z,19.53
2019-04-28T12:24:07.180Z,19.53
2019-04-28T12:25:09.390Z,19.52
2019-04-28T12:26:11.612Z,19.54
2019-04-28T12:27:13.836Z,19.54
2019-04-28T12:28:16.061Z,19.53
2019-04-28T12:29:18.212Z,19.53
2019-04-28T12:30:20.418Z,19.52
2019-04-28T12:31:22.637Z,19.53
2019-04-28T12:32:24.863Z,19.52
2019-04-28T12:33:27.086Z,19.52
2019-04-28T12:34:29.305Z,19.52
2019-04-28T12:35:31.526Z,19.52
2019-04-28T12:36:33.752Z,19.52
2019-04-28T12:37:35.967Z,19.52
2019-04-28T12:38:38.170Z,19.52
2019-04-28T12:39:40.386Z,19.51
2019-04-28T12:40:42.606Z,19.51
2019-04-28T12:41:44.868Z,19.50
2019-04-28T12:42:47.096Z,19.50
2019-04-28T12:43:49.304Z,19.52
2019-04-28T12:44:51.518Z,19.54
2019-04-28T12:45:53.728Z,19.54
2019-04-28T12:46:55.971Z,19.54
2019-04-28T12:47:58.192Z,19.55
2019-04-28T12:49:03.442Z,19.53
2019-04-28T12:50:14.823Z,19.54
2019-04-28T12:51:17.136Z,19.53
2019-04-28T12:52:19.374Z,19.53
2019-04-28T12:53:22.175Z,19.53
2019-04-28T12:54:26.799Z,19.54
2019-04-28T12:55:29.034Z,19.50
2019-04-28T12:56:31.248Z,19.50
2019-04-28T12:57:33.460Z,19.52
2019-04-28T12:58:35.678Z,19.50
2019-04-28T12:59:43.777Z,19.50
2019-04-28T13:00:57.276Z,19.50
2019-04-28T13:02:18.459Z,19.50
2019-04-28T13:03:33.992Z,19.52
2019-04-28T13:04:46.094Z,19.52
2019-04-28T13:06:00.836Z,19.52
2019-04-28T13:07:11.087Z,19.51
2019-04-28T13:08:13.314Z,19.50
2019-04-28T13:09:15.512Z,19.52
2019-04-28T13:10:17.736Z,19.52
2019-04-28T13:11:19.952Z,19.52
2019-04-28T13:12:22.184Z,19.55
2019-04-28T13:13:24.391Z,19.57
2019-04-28T13:14:26.623Z,19.57
2019-04-28T13:15:28.851Z,19.56
2019-04-28T13:16:31.078Z,19.54
2019-04-28T13:17:33.285Z,19.56
2019-04-28T13:18:35.514Z,19.55
2019-04-28T13:19:37.730Z,19.54
2019-04-28T13:20:39.986Z,19.54
2019-04-28T13:21:44.057Z,19.53
2019-04-28T13:22:46.021Z,19.53
2019-04-28T13:23:48.247Z,19.50
2019-04-28T13:24:50.464Z,19.58
2019-04-28T13:25:52.685Z,19.68
2019-04-28T13:26:54.888Z,19.71
2019-04-28T13:27:57.105Z,19.73
2019-04-28T13:28:59.315Z,19.72
2019-04-28T13:30:01.519Z,19.73
2019-04-28T13:31:03.738Z,19.73
2019-04-28T13:32:05.970Z,19.73
2019-04-28T13:33:08.256Z,19.70
2019-04-28T13:34:12.011Z,19.67
2019-04-28T13:35:14.223Z,19.64
2019-04-28T13:36:16.444Z,19.62
2019-04-28T13:37:18.664Z,19.60
2019-04-28T13:38:20.879Z,19.59
2019-04-28T13:39:42.029Z,19.56
2019-04-28T13:40:44.243Z,19.56
2019-04-28T13:41:46.468Z,19.56
2019-04-28T13:42:48.702Z,19.55
2019-04-28T13:43:50.946Z,19.56
2019-04-28T13:45:01.916Z,19.54
2019-04-28T13:46:04.139Z,19.55
2019-04-28T13:47:06.359Z,19.55
2019-04-28T13:48:08.615Z,19.54
2019-04-28T13:49:12.558Z,19.54